createdAt,value
2022-12-02T00:00:01.382Z,5.93
2022-12-02T00:02:31.759Z,5.90
2022-12-02T00:05:03.180Z,5.83
2022-12-02T00:07:33.921Z,5.79
2022-12-02T00:10:01.755Z,5.82
2022-12-02T00:12:33.014Z,5.87
2022-12-02T00:15:03.545Z,5.84
2022-12-02T00:17:31.347Z,5.85
2022-12-02T00:19:59.295Z,5.84
2022-12-02T00:22:27.116Z,5.86
2022-12-02T00:24:56.261Z,5.87
2022-12-02T00:27:24.062Z,5.84
2022-12-02T00:29:51.900Z,5.83
2022-12-02T00:32:19.697Z,5.77
2022-12-02T00:34:47.776Z,5.78
2022-12-02T00:37:15.797Z,5.77
2022-12-02T00:39:43.569Z,5.78
2022-12-02T00:42:12.865Z,5.77
2022-12-02T00:44:58.090Z,5.73
2022-12-02T00:47:25.925Z,5.59
2022-12-02T00:49:53.784Z,5.62
2022-12-02T00:52:21.574Z,5.58
2022-12-02T00:54:49.666Z,5.55
2022-12-02T00:57:19.054Z,5.53
2022-12-02T00:59:46.831Z,5.55
2022-12-02T01:02:14.746Z,5.56
2022-12-02T01:04:42.643Z,5.61
2022-12-02T01:07:10.577Z,5.62
2022-12-02T01:09:38.401Z,5.59
2022-12-02T01:12:06.511Z,5.57
2022-12-02T01:14:35.755Z,5.57
2022-12-02T01:17:03.593Z,5.61
2022-12-02T01:19:31.403Z,5.60
2022-12-02T01:21:59.204Z,5.55
2022-12-02T01:24:27.059Z,5.53
2022-12-02T01:26:55.042Z,5.59
2022-12-02T01:29:22.886Z,5.66
2022-12-02T01:31:52.239Z,5.66
2022-12-02T01:34:20.031Z,5.66
2022-12-02T01:36:47.848Z,5.64
2022-12-02T01:39:15.634Z,5.64
2022-12-02T01:41:43.428Z,5.67
2022-12-02T01:44:11.252Z,5.68
2022-12-02T01:46:39.089Z,5.67
2022-12-02T01:49:08.275Z,5.65
2022-12-02T01:51:36.092Z,5.62
2022-12-02T01:54:04.639Z,5.60
2022-12-02T01:56:32.574Z,5.60
2022-12-02T01:59:00.418Z,5.60
2022-12-02T02:01:30.511Z,5.64
2022-12-02T02:03:58.611Z,5.70
2022-12-02T02:06:30.424Z,5.65
2022-12-02T02:08:58.915Z,5.66
2022-12-02T02:11:27.139Z,5.69
2022-12-02T02:13:56.172Z,5.69
2022-12-02T02:16:24.258Z,5.68
2022-12-02T02:18:52.136Z,5.67
2022-12-02T02:21:28.295Z,5.71
2022-12-02T02:23:57.751Z,5.69
2022-12-02T02:26:25.992Z,5.66
2022-12-02T02:28:54.717Z,5.67
2022-12-02T02:31:22.674Z,5.69
2022-12-02T02:33:51.283Z,5.68
2022-12-02T02:36:19.110Z,5.72
2022-12-02T02:38:49.211Z,5.69
2022-12-02T02:41:18.843Z,5.69
2022-12-02T02:43:47.594Z,5.69
2022-12-02T02:46:16.481Z,5.69
2022-12-02T02:48:44.959Z,5.68
2022-12-02T02:51:13.956Z,5.67
2022-12-02T02:53:44.168Z,5.67
2022-12-02T02:56:12.401Z,5.67
2022-12-02T02:58:41.630Z,5.66
2022-12-02T03:01:12.848Z,5.66
2022-12-02T03:03:46.131Z,5.68
2022-12-02T03:06:15.836Z,5.67
2022-12-02T03:08:46.930Z,5.71
2022-12-02T03:11:15.388Z,5.73
2022-12-02T03:13:48.140Z,5.76
2022-12-02T03:16:17.717Z,5.72
2022-12-02T03:18:47.368Z,5.63
2022-12-02T03:21:16.888Z,5.61
2022-12-02T03:23:45.773Z,5.62
2022-12-02T03:26:14.109Z,5.59
2022-12-02T03:28:42.837Z,5.57
2022-12-02T03:31:13.049Z,5.55
2022-12-02T03:33:42.160Z,5.55
2022-12-02T03:36:11.173Z,5.56
2022-12-02T03:38:39.616Z,5.58
2022-12-02T03:41:08.580Z,5.60
2022-12-02T03:43:36.552Z,5.61
2022-12-02T03:46:06.596Z,5.64
2022-12-02T03:48:37.325Z,5.63
2022-12-02T03:51:05.379Z,5.61
2022-12-02T03:53:34.064Z,5.55
2022-12-02T03:56:04.059Z,5.48
2022-12-02T03:58:36.793Z,5.42
2022-12-02T04:01:04.865Z,5.44
2022-12-02T04:03:32.687Z,5.42
2022-12-02T04:06:01.854Z,5.41
2022-12-02T04:08:30.186Z,5.41
2022-12-02T04:10:58.369Z,5.41
2022-12-02T04:13:26.202Z,5.41
2022-12-02T04:15:54.158Z,5.44
2022-12-02T04:18:22.039Z,5.42
2022-12-02T04:20:49.861Z,5.42
2022-12-02T04:23:19.010Z,5.45
2022-12-02T04:25:46.793Z,5.42
2022-12-02T04:28:15.795Z,5.43
2022-12-02T04:30:43.750Z,5.40
2022-12-02T04:33:11.686Z,5.37
2022-12-02T04:35:39.698Z,5.36
2022-12-02T04:38:11.957Z,5.41
2022-12-02T04:40:41.927Z,5.37
2022-12-02T04:43:09.744Z,5.33
2022-12-02T04:45:37.942Z,5.36
2022-12-02T04:48:06.108Z,5.37
2022-12-02T04:50:33.882Z,5.40
2022-12-02T04:53:01.819Z,5.39
2022-12-02T04:55:30.016Z,5.38
2022-12-02T04:57:59.306Z,5.36
2022-12-02T05:00:27.421Z,5.34
2022-12-02T05:02:57.199Z,5.37
2022-12-02T05:05:25.111Z,5.37
2022-12-02T05:07:53.027Z,5.37
2022-12-02T05:10:20.850Z,5.39
2022-12-02T05:12:48.691Z,5.41
2022-12-02T05:15:20.024Z,5.41
2022-12-02T05:17:47.874Z,5.42
2022-12-02T05:20:16.003Z,5.47
2022-12-02T05:22:43.822Z,5.42
2022-12-02T05:25:12.008Z,5.40
2022-12-02T05:27:39.827Z,5.36
2022-12-02T05:30:09.122Z,5.33
2022-12-02T05:32:38.297Z,5.35
2022-12-02T05:35:07.017Z,5.34
2022-12-02T05:37:34.853Z,5.33
2022-12-02T05:40:02.817Z,5.29
2022-12-02T05:42:30.675Z,5.29
2022-12-02T05:45:01.672Z,5.28
2022-12-02T05:47:30.978Z,5.32
2022-12-02T05:50:01.773Z,5.28
2022-12-02T05:52:30.758Z,5.29
2022-12-02T05:55:01.017Z,5.32
2022-12-02T05:57:30.726Z,5.34
2022-12-02T06:00:11.813Z,5.32
2022-12-02T06:02:41.984Z,5.29
2022-12-02T06:05:18.613Z,5.24
2022-12-02T06:07:46.937Z,5.20
2022-12-02T06:10:23.552Z,5.15
2022-12-02T06:12:52.990Z,5.14
2022-12-02T06:15:21.155Z,5.11
2022-12-02T06:17:49.156Z,5.12
2022-12-02T06:20:28.125Z,5.08
2022-12-02T06:22:56.287Z,5.09
2022-12-02T06:25:27.465Z,5.09
2022-12-02T06:27:59.482Z,5.14
2022-12-02T06:30:27.883Z,5.14
2022-12-02T06:32:59.988Z,5.11
2022-12-02T06:35:32.378Z,5.12
2022-12-02T06:38:03.360Z,5.13
2022-12-02T06:40:32.663Z,5.11
2022-12-02T06:43:02.056Z,5.15
2022-12-02T06:45:32.570Z,5.19
2022-12-02T06:48:21.930Z,5.15
2022-12-02T06:50:51.262Z,5.20
2022-12-02T06:53:33.693Z,5.19
2022-12-02T06:56:06.261Z,5.17
2022-12-02T06:58:40.545Z,5.13
2022-12-02T07:01:33.563Z,5.07
2022-12-02T07:04:36.366Z,4.98
2022-12-02T07:07:15.371Z,5.02
2022-12-02T07:09:46.777Z,5.04
2022-12-02T07:12:20.171Z,5.03
2022-12-02T07:14:51.192Z,5.05
2022-12-02T07:17:27.161Z,5.04
2022-12-02T07:20:03.861Z,4.91
2022-12-02T07:22:36.924Z,4.95
2022-12-02T07:25:33.344Z,4.90
2022-12-02T07:28:02.316Z,4.91
2022-12-02T07:30:32.652Z,4.86
2022-12-02T07:33:01.218Z,4.85
2022-12-02T07:35:29.460Z,4.87
2022-12-02T07:37:59.045Z,4.87
2022-12-02T07:40:26.923Z,4.81
2022-12-02T07:42:54.721Z,4.83
2022-12-02T07:45:22.755Z,4.82
2022-12-02T07:47:50.617Z,4.82
2022-12-02T07:50:19.161Z,4.81
2022-12-02T07:52:47.156Z,4.80
2022-12-02T07:55:22.766Z,4.78
2022-12-02T07:57:54.028Z,4.77
2022-12-02T08:00:23.555Z,4.76
2022-12-02T08:02:51.466Z,4.74
2022-12-02T08:05:19.368Z,4.76
2022-12-02T08:07:47.329Z,4.76
2022-12-02T08:10:17.147Z,4.75
2022-12-02T08:12:45.050Z,4.69
2022-12-02T08:15:14.217Z,4.69
2022-12-02T08:17:42.095Z,4.74
2022-12-02T08:20:12.887Z,4.80
2022-12-02T08:22:40.809Z,4.83
2022-12-02T08:25:09.764Z,4.83
2022-12-02T08:27:44.959Z,4.76
2022-12-02T08:30:15.624Z,4.77
2022-12-02T08:32:44.081Z,4.77
2022-12-02T08:35:13.046Z,4.76
2022-12-02T08:37:41.033Z,4.80
2022-12-02T08:40:09.927Z,4.84
2022-12-02T08:42:39.232Z,4.85
2022-12-02T08:45:08.029Z,4.85
2022-12-02T08:47:36.105Z,4.84
2022-12-02T08:50:04.472Z,4.85
2022-12-02T08:52:32.605Z,4.87
2022-12-02T08:55:00.412Z,4.86
2022-12-02T08:57:28.405Z,4.87
2022-12-02T08:59:57.873Z,4.87
2022-12-02T09:02:26.125Z,4.88
2022-12-02T09:04:54.136Z,4.86
2022-12-02T09:07:22.387Z,4.86
2022-12-02T09:09:50.549Z,4.87
2022-12-02T09:12:18.511Z,4.86
2022-12-02T09:14:46.405Z,4.89
2022-12-02T09:17:15.782Z,4.92
2022-12-02T09:19:43.627Z,4.89
2022-12-02T09:22:11.681Z,4.89
2022-12-02T09:24:39.571Z,4.91
2022-12-02T09:27:07.489Z,4.90
2022-12-02T09:29:35.636Z,4.86
2022-12-02T09:32:03.569Z,4.80
2022-12-02T09:34:33.070Z,4.84
2022-12-02T09:37:01.041Z,4.84
2022-12-02T09:39:31.977Z,4.80
2022-12-02T09:42:02.711Z,4.81
2022-12-02T09:44:30.879Z,4.85
2022-12-02T09:47:00.077Z,4.83
2022-12-02T09:49:27.982Z,4.84
2022-12-02T09:52:01.801Z,4.86
2022-12-02T09:54:30.306Z,4.91
2022-12-02T09:56:58.897Z,4.88
2022-12-02T09:59:29.536Z,4.91
2022-12-02T10:01:59.358Z,4.89
2022-12-02T10:04:27.698Z,4.90
2022-12-02T10:06:57.068Z,4.92
2022-12-02T10:09:29.825Z,4.93
2022-12-02T10:11:58.264Z,4.97
2022-12-02T10:14:26.222Z,4.96
2022-12-02T10:16:55.417Z,5.00
2022-12-02T10:19:23.709Z,5.02
2022-12-02T10:21:55.643Z,4.97
2022-12-02T10:24:39.395Z,4.89
2022-12-02T10:27:07.571Z,4.83
2022-12-02T10:29:36.039Z,4.88
2022-12-02T10:32:06.033Z,4.91
2022-12-02T10:34:36.073Z,4.91
2022-12-02T10:37:18.860Z,4.94
2022-12-02T10:39:48.494Z,4.95
2022-12-02T10:42:21.433Z,4.96
2022-12-02T10:45:10.953Z,4.89
2022-12-02T10:47:39.029Z,4.89
2022-12-02T10:50:17.939Z,4.85
2022-12-02T10:52:49.049Z,4.86
2022-12-02T10:55:18.992Z,4.87
2022-12-02T10:57:48.332Z,4.92
2022-12-02T11:00:18.542Z,4.87
2022-12-02T11:02:48.905Z,4.87
2022-12-02T11:05:18.928Z,4.84
2022-12-02T11:07:58.966Z,4.83
2022-12-02T11:10:34.162Z,4.82
2022-12-02T11:13:30.875Z,4.88
2022-12-02T11:16:54.026Z,4.83
2022-12-02T11:19:45.171Z,4.84
2022-12-02T11:22:51.515Z,4.85
2022-12-02T11:25:54.395Z,4.83
2022-12-02T11:28:47.696Z,4.83
2022-12-02T11:31:24.587Z,4.82
2022-12-02T11:34:54.033Z,4.84
2022-12-02T11:37:41.675Z,4.85
2022-12-02T11:40:43.226Z,4.88
2022-12-02T11:43:43.785Z,4.92
2022-12-02T11:46:12.187Z,5.00
2022-12-02T11:48:46.067Z,5.05
2022-12-02T11:51:34.745Z,5.02
2022-12-02T11:54:04.580Z,5.07
2022-12-02T11:56:38.109Z,5.02
2022-12-02T11:59:20.589Z,4.99
2022-12-02T12:01:49.125Z,5.02
2022-12-02T12:04:28.545Z,4.98
2022-12-02T12:06:58.633Z,5.06
2022-12-02T12:09:28.911Z,5.09
2022-12-02T12:12:14.179Z,5.07
2022-12-02T12:15:03.073Z,5.15
2022-12-02T12:17:33.915Z,5.18
2022-12-02T12:20:02.268Z,5.17
2022-12-02T12:22:32.082Z,5.21
2022-12-02T12:25:33.215Z,5.19
2022-12-02T12:28:01.125Z,5.21
2022-12-02T12:30:29.064Z,5.23
2022-12-02T12:32:56.967Z,5.16
2022-12-02T12:35:24.776Z,5.16
2022-12-02T12:37:53.096Z,5.13
2022-12-02T12:40:21.113Z,5.17
2022-12-02T12:42:50.850Z,5.20
2022-12-02T12:45:19.011Z,5.28
2022-12-02T12:47:46.878Z,5.27
2022-12-02T12:50:14.864Z,5.27
2022-12-02T12:52:42.959Z,5.24
2022-12-02T12:55:11.402Z,5.25
2022-12-02T12:57:39.349Z,5.33
2022-12-02T13:00:09.860Z,5.31
2022-12-02T13:02:37.772Z,5.29
2022-12-02T13:05:06.187Z,5.32
2022-12-02T13:07:34.181Z,5.30
2022-12-02T13:10:02.154Z,5.34
2022-12-02T13:12:30.051Z,5.32
2022-12-02T13:14:58.140Z,5.34
2022-12-02T13:17:27.331Z,5.29
2022-12-02T13:19:55.372Z,5.19
2022-12-02T13:22:23.186Z,5.15
2022-12-02T13:24:51.030Z,5.17
2022-12-02T13:27:18.903Z,5.14
2022-12-02T13:29:46.792Z,5.14
2022-12-02T13:32:14.845Z,5.12
2022-12-02T13:34:44.152Z,5.11
2022-12-02T13:37:12.429Z,5.10
2022-12-02T13:39:40.300Z,5.07
2022-12-02T13:42:08.187Z,5.07
2022-12-02T13:44:37.852Z,5.10
2022-12-02T13:47:06.110Z,5.07
2022-12-02T13:49:34.435Z,5.10
2022-12-02T13:52:04.001Z,5.10
2022-12-02T13:54:32.388Z,5.12
2022-12-02T13:57:00.784Z,5.11
2022-12-02T13:59:31.703Z,5.07
2022-12-02T14:02:04.517Z,5.08
2022-12-02T14:04:32.527Z,5.08
2022-12-02T14:07:00.459Z,5.05
2022-12-02T14:09:29.845Z,5.08
2022-12-02T14:11:57.675Z,5.07
2022-12-02T14:14:25.835Z,5.02
2022-12-02T14:16:53.918Z,4.96
2022-12-02T14:19:21.873Z,4.92
2022-12-02T14:21:49.788Z,4.94
2022-12-02T14:24:17.856Z,4.88
2022-12-02T14:26:47.093Z,4.83
2022-12-02T14:29:14.910Z,4.77
2022-12-02T14:31:42.785Z,4.80
2022-12-02T14:34:12.956Z,4.81
2022-12-02T14:36:42.120Z,4.84
2022-12-02T14:39:10.452Z,4.83
2022-12-02T14:41:38.433Z,4.81
2022-12-02T14:44:07.848Z,4.84
2022-12-02T14:46:35.807Z,4.87
2022-12-02T14:49:37.161Z,4.90
2022-12-02T14:51:51.631Z,4.90
2022-12-02T14:54:19.522Z,4.84
2022-12-02T14:56:47.369Z,4.80
2022-12-02T14:59:16.771Z,4.80
2022-12-02T15:01:44.988Z,4.73
2022-12-02T15:04:12.812Z,4.76
2022-12-02T15:06:40.762Z,4.76
2022-12-02T15:09:08.773Z,4.73
2022-12-02T15:11:36.641Z,4.73
2022-12-02T15:14:04.918Z,4.74
2022-12-02T15:16:34.295Z,4.80
2022-12-02T15:19:02.400Z,4.79
2022-12-02T15:21:30.259Z,4.74
2022-12-02T15:23:58.470Z,4.76
2022-12-02T15:26:26.339Z,4.75
2022-12-02T15:28:54.437Z,4.73
2022-12-02T15:31:22.404Z,4.70
2022-12-02T15:33:51.803Z,4.70
2022-12-02T15:36:19.672Z,4.67
2022-12-02T15:38:47.541Z,4.66
2022-12-02T15:41:15.745Z,4.68
2022-12-02T15:43:47.240Z,4.73
2022-12-02T15:46:18.064Z,4.73
2022-12-02T15:48:46.038Z,4.70
2022-12-02T15:51:15.324Z,4.68
2022-12-02T15:53:45.810Z,4.67
2022-12-02T15:56:13.770Z,4.69
2022-12-02T15:58:41.847Z,4.63
2022-12-02T16:01:10.350Z,4.65
2022-12-02T16:03:38.225Z,4.63
2022-12-02T16:06:06.597Z,4.66
2022-12-02T16:08:36.331Z,4.65
2022-12-02T16:11:04.396Z,4.59
2022-12-02T16:13:32.434Z,4.59
2022-12-02T16:16:00.394Z,4.61
2022-12-02T16:18:28.707Z,4.66
2022-12-02T16:20:56.623Z,4.66
2022-12-02T16:23:24.499Z,4.63
2022-12-02T16:25:53.870Z,4.58
2022-12-02T16:28:22.137Z,4.62
2022-12-02T16:30:50.005Z,4.62
2022-12-02T16:33:18.261Z,4.61
2022-12-02T16:35:46.187Z,4.67
2022-12-02T16:38:14.073Z,4.67
2022-12-02T16:40:42.162Z,4.70
2022-12-02T16:43:11.597Z,4.65
2022-12-02T16:45:39.464Z,4.67
2022-12-02T16:48:09.152Z,4.62
2022-12-02T16:50:37.181Z,4.57
2022-12-02T16:53:05.848Z,4.62
2022-12-02T16:55:34.059Z,4.64
2022-12-02T16:58:01.983Z,4.64
2022-12-02T17:00:31.319Z,4.65
2022-12-02T17:02:59.318Z,4.64
2022-12-02T17:05:27.406Z,4.64
2022-12-02T17:07:55.887Z,4.60
2022-12-02T17:10:24.048Z,4.54
2022-12-02T17:12:52.311Z,4.50
2022-12-02T17:15:21.554Z,4.49
2022-12-02T17:17:50.990Z,4.47
2022-12-02T17:20:19.217Z,4.39
2022-12-02T17:22:47.240Z,4.43
2022-12-02T17:25:15.268Z,4.41
2022-12-02T17:27:43.179Z,4.41
2022-12-02T17:30:12.529Z,4.38
2022-12-02T17:32:40.559Z,4.39
2022-12-02T17:35:10.872Z,4.38
2022-12-02T17:37:39.002Z,4.44
2022-12-02T17:40:08.166Z,4.43
2022-12-02T17:42:36.056Z,4.40
2022-12-02T17:45:04.085Z,4.37
2022-12-02T17:47:31.922Z,4.38
2022-12-02T17:49:59.878Z,4.34
2022-12-02T17:52:29.114Z,4.32
2022-12-02T17:54:57.004Z,4.28
2022-12-02T17:57:24.940Z,4.32
2022-12-02T17:59:52.805Z,4.33
2022-12-02T18:02:21.077Z,4.27
2022-12-02T18:04:49.599Z,4.21
2022-12-02T18:07:17.654Z,4.21
2022-12-02T18:09:46.875Z,4.22
2022-12-02T18:12:14.726Z,4.20
2022-12-02T18:14:42.602Z,4.18
2022-12-02T18:17:10.657Z,4.21
2022-12-02T18:19:38.667Z,4.20
2022-12-02T18:22:06.663Z,4.20
2022-12-02T18:24:34.592Z,4.23
2022-12-02T18:27:03.801Z,4.26
2022-12-02T18:29:31.683Z,4.31
2022-12-02T18:31:59.618Z,4.28
2022-12-02T18:34:27.486Z,4.31
2022-12-02T18:36:55.486Z,4.25
2022-12-02T18:39:23.673Z,4.20
2022-12-02T18:41:51.654Z,4.11
2022-12-02T18:44:20.863Z,4.10
2022-12-02T18:46:48.826Z,4.13
2022-12-02T18:49:16.736Z,4.18
2022-12-02T18:51:44.816Z,4.18
2022-12-02T18:54:12.687Z,4.19
2022-12-02T18:56:40.675Z,4.14
2022-12-02T18:59:08.791Z,4.17
2022-12-02T19:01:38.282Z,4.11
2022-12-02T19:04:06.985Z,4.09
2022-12-02T19:06:35.024Z,4.02
2022-12-02T19:09:02.935Z,4.04
2022-12-02T19:11:30.806Z,3.95
2022-12-02T19:13:58.632Z,3.93
2022-12-02T19:16:26.631Z,3.93
2022-12-02T19:18:56.011Z,3.89
2022-12-02T19:21:25.143Z,3.88
2022-12-02T19:23:53.298Z,3.83
2022-12-02T19:26:21.921Z,3.86
2022-12-02T19:28:49.892Z,3.87
2022-12-02T19:31:18.364Z,3.84
2022-12-02T19:33:46.417Z,3.85
2022-12-02T19:36:15.760Z,3.83
2022-12-02T19:38:43.657Z,3.81
2022-12-02T19:41:11.883Z,3.77
2022-12-02T19:43:40.060Z,3.74
2022-12-02T19:46:08.199Z,3.67
2022-12-02T19:48:36.293Z,3.66
2022-12-02T19:51:04.438Z,3.67
2022-12-02T19:53:33.837Z,3.69
2022-12-02T19:56:01.953Z,3.71
2022-12-02T19:58:29.841Z,3.74
2022-12-02T20:00:58.053Z,3.72
2022-12-02T20:03:26.015Z,3.68
2022-12-02T20:05:54.539Z,3.68
2022-12-02T20:08:22.617Z,3.72
2022-12-02T20:10:51.898Z,3.75
2022-12-02T20:13:19.826Z,3.67
2022-12-02T20:15:47.816Z,3.69
2022-12-02T20:18:16.159Z,3.69
2022-12-02T20:20:44.526Z,3.69
2022-12-02T20:23:12.403Z,3.72
2022-12-02T20:25:40.499Z,3.68
2022-12-02T20:28:09.935Z,3.70
2022-12-02T20:30:37.892Z,3.67
2022-12-02T20:33:05.738Z,3.67
2022-12-02T20:35:33.667Z,3.65
2022-12-02T20:38:01.857Z,3.69
2022-12-02T20:40:30.224Z,3.68
2022-12-02T20:42:58.363Z,3.65
2022-12-02T20:45:27.628Z,3.61
2022-12-02T20:47:55.501Z,3.56
2022-12-02T20:50:23.417Z,3.58
2022-12-02T20:52:53.977Z,3.59
2022-12-02T20:55:22.283Z,3.58
2022-12-02T20:57:50.354Z,3.58
2022-12-02T21:00:19.383Z,3.56
2022-12-02T21:02:48.792Z,3.56
2022-12-02T21:05:17.011Z,3.61
2022-12-02T21:07:44.904Z,3.61
2022-12-02T21:10:13.559Z,3.66
2022-12-02T21:12:41.565Z,3.67
2022-12-02T21:15:11.092Z,3.67
2022-12-02T21:17:39.022Z,3.63
2022-12-02T21:20:09.347Z,3.64
2022-12-02T21:22:37.551Z,3.66
2022-12-02T21:25:05.849Z,3.67
2022-12-02T21:27:33.718Z,3.65
2022-12-02T21:30:01.929Z,3.69
2022-12-02T21:32:29.804Z,3.70
2022-12-02T21:34:57.980Z,3.72
2022-12-02T21:37:27.233Z,3.70
2022-12-02T21:39:55.079Z,3.68
2022-12-02T21:42:23.144Z,3.64
2022-12-02T21:44:51.535Z,3.63
2022-12-02T21:47:19.850Z,3.66
2022-12-02T21:49:49.474Z,3.70
2022-12-02T21:52:18.021Z,3.75
2022-12-02T21:54:47.396Z,3.75
2022-12-02T21:57:15.232Z,3.76
2022-12-02T21:59:43.165Z,3.77
2022-12-02T22:02:13.910Z,3.75
2022-12-02T22:04:43.326Z,3.73
2022-12-02T22:07:29.274Z,3.67
2022-12-02T22:09:58.659Z,3.70
2022-12-02T22:12:26.575Z,3.70
2022-12-02T22:14:54.657Z,3.68
2022-12-02T22:17:23.013Z,3.66
2022-12-02T22:19:50.820Z,3.70
2022-12-02T22:22:18.646Z,3.74
2022-12-02T22:24:46.586Z,3.79
2022-12-02T22:27:15.736Z,3.82
2022-12-02T22:29:43.806Z,3.79
2022-12-02T22:32:12.046Z,3.77
2022-12-02T22:34:39.937Z,3.77
2022-12-02T22:37:07.830Z,3.78
2022-12-02T22:39:35.962Z,3.77
2022-12-02T22:42:04.015Z,3.74
2022-12-02T22:44:33.350Z,3.76
2022-12-02T22:47:01.271Z,3.76
2022-12-02T22:49:29.158Z,3.78
2022-12-02T22:51:57.005Z,3.79
2022-12-02T22:54:25.147Z,3.78
2022-12-02T22:56:53.120Z,3.74
2022-12-02T22:59:20.985Z,3.75
2022-12-02T23:01:50.181Z,3.75
2022-12-02T23:04:18.315Z,3.71
2022-12-02T23:06:46.385Z,3.70
2022-12-02T23:09:14.539Z,3.70
2022-12-02T23:11:42.556Z,3.72
2022-12-02T23:14:10.601Z,3.74
2022-12-02T23:16:38.634Z,3.76
2022-12-02T23:19:08.051Z,3.82
2022-12-02T23:21:36.115Z,3.88
2022-12-02T23:24:04.030Z,3.90
2022-12-02T23:26:32.086Z,3.89
2022-12-02T23:28:59.945Z,3.86
2022-12-02T23:31:27.806Z,3.86
2022-12-02T23:33:56.083Z,3.84
2022-12-02T23:36:26.282Z,3.84
2022-12-02T23:38:55.635Z,3.85
2022-12-02T23:41:23.640Z,3.85
2022-12-02T23:43:51.662Z,3.85
2022-12-02T23:46:19.701Z,3.83
2022-12-02T23:48:47.846Z,3.84
2022-12-02T23:51:15.716Z,3.86
2022-12-02T23:53:45.060Z,3.85
2022-12-02T23:56:13.074Z,3.79
2022-12-02T23:58:41.262Z,3.80
